Facebook Twitter

Wetterstation Faßberg

Messwerte
  Temperatur Wetter Niederschlag Luftdruck Wind
Mo, 01:20 Uhr 12° - - 1013 hPa 3 km/h S
Mo, 01:00 Uhr 13° - - 1013 hPa 4 km/h SO
Mo, 00:00 Uhr 14° - - 1013 hPa 4 km/h SW
So, 23:00 Uhr 15° - - 1012 hPa 4 km/h N
So, 22:00 Uhr 17° - - 1012 hPa 7 km/h S
So, 21:00 Uhr 19° - - 1012 hPa 7 km/h S
So, 20:00 Uhr 21° - 0.7 mm 1012 hPa 11 km/h SW
So, 19:00 Uhr 21° - - 1012 hPa 11 km/h S
So, 18:00 Uhr 20° - - 1012 hPa 18 km/h S
So, 17:00 Uhr 20° - - 1012 hPa 7 km/h W
So, 16:00 Uhr 22° - - 1012 hPa 18 km/h SW
So, 15:00 Uhr 22° - - 1012 hPa 22 km/h S
So, 14:00 Uhr 22° - - 1013 hPa 22 km/h SW
So, 13:00 Uhr 20° - - 1013 hPa 22 km/h SW
So, 12:00 Uhr 19° - - 1013 hPa 18 km/h W
So, 11:00 Uhr 19° - - 1013 hPa 22 km/h W
So, 10:00 Uhr 17° - - 1013 hPa 18 km/h W
So, 09:00 Uhr 16° - - 1013 hPa 18 km/h SW
So, 08:00 Uhr 14° - 0 mm 1013 hPa 11 km/h SW
So, 07:00 Uhr 11° - - 1013 hPa 4 km/h SW

Alle Zeitangaben MESZ